Wiadomości VE7GPC-1 - widok mapy · informacje · telemetria · pogoda · surowe · status · beacony · wiadomości · biuletyny · przegląd · w ruchu · moje konto
Znak stacji:
Pokaż:

Trwa ładowanie pakietów message...

Wiadomości APRS są przechowywane przez 14 dni. W wyszukiwaniu możesz użyć metaznaków (*?) po prefiksie.

2020-09-21 17:17:24 EDT: VE7GPC-1>WXBOT: METAR
2020-09-21 17:17:32 EDT: WXBOT>VE7GPC-1: CYQZ 212100Z AUTO 16007KT 9SM OVC100 13/09 A2995 RMK SLP156 DENSITY
2020-09-21 17:17:37 EDT: WXBOT>VE7GPC-1: ALT 1900FT
User guide · FAQ · Blog · Grupa dyskusyjna · Linkowanie do aprs.fi · Obszary AIS · Status usługi · Statystyki bazy danych · Reklama na aprs.fi · Szczegóły techniczne · API · Lista zmian · Planowane zmiany · Podziękowania · Warunki korzystania · iPhone/iPad APRS